Time;durP1;ratioP1;P1;durP2;ratioP2;P2;SDS_P1;SDS_P2;PMS_P1;PMS_P2;Temp;Humidity;BMP_temperature;BMP_pressure;BME280_temperature;BME280_humidity;BME280_pressure;Samples;Min_cycle;Max_cycle;Signal;HPM_P1;HPM_P2
2021/03/17 00:02:43;;;;;;;10.43;2.80;;;;;;;3.36;69.88;102102.25;6117660;29;20460;-75
2021/03/17 00:06:06;;;;;;;16.67;3.43;;;;;;;3.51;69.92;102090.06;6097975;29;20263;-74
2021/03/17 00:09:28;;;;;;;19.77;3.47;;;;;;;3.29;70.30;102089.47;6098266;29;20264;-74
2021/03/17 00:12:51;;;;;;;8.03;3.00;;;;;;;3.54;69.31;102095.19;6097101;29;20551;-74
2021/03/17 00:16:14;;;;;;;11.33;2.97;;;;;;;3.67;69.81;102101.13;6097276;29;20265;-74
2021/03/17 00:19:35;;;;;;;7.03;3.23;;;;;;;3.84;68.86;102112.22;6097804;29;20260;-75
2021/03/17 00:22:57;;;;;;;8.67;3.00;;;;;;;3.55;68.82;102096.88;6097988;29;20237;-74
2021/03/17 00:26:20;;;;;;;7.23;2.73;;;;;;;3.54;70.12;102108.66;6097866;29;20197;-74
2021/03/17 00:29:41;;;;;;;13.60;2.73;;;;;;;3.35;69.27;102111.31;6097626;29;20224;-75
2021/03/17 00:33:09;;;;;;;15.53;3.10;;;;;;;3.06;71.00;102102.31;6096622;29;20192;-75
2021/03/17 00:36:31;;;;;;;11.20;2.93;;;;;;;3.13;72.03;102107.00;6097381;29;20221;-75
2021/03/17 00:39:54;;;;;;;10.10;2.30;;;;;;;3.10;71.33;102095.66;6097663;29;20190;-75
2021/03/17 00:43:17;;;;;;;5.17;2.23;;;;;;;3.46;70.68;102103.13;6097173;29;20262;-74
2021/03/17 00:46:39;;;;;;;9.33;3.03;;;;;;;3.46;69.33;102103.13;6095448;29;20563;-75
2021/03/17 00:49:50;;;;;;;16.30;3.03;;;;;;;3.46;70.53;102107.66;6097133;29;20192;-75
2021/03/17 00:52:58;;;;;;;3.80;2.53;;;;;;;3.42;69.72;102107.06;6080561;29;20207;-75
2021/03/17 00:56:03;;;;;;;2.53;2.03;;;;;;;3.49;69.82;102102.00;6111007;29;20218;-73
2021/03/17 00:59:16;;;;;;;13.17;2.50;;;;;;;3.35;69.57;102105.94;6097216;29;20224;-74
2021/03/17 01:02:21;;;;;;;8.20;2.70;;;;;;;3.28;69.95;102102.09;6096994;29;20215;-74
2021/03/17 01:05:24;;;;;;;10.13;2.50;;;;;;;2.97;70.67;102105.84;6119272;29;20482;-74
2021/03/17 01:08:27;;;;;;;5.60;2.30;;;;;;;2.80;71.82;102106.50;6119105;29;20197;-74
2021/03/17 01:11:31;;;;;;;7.77;2.13;;;;;;;2.94;70.76;102106.13;6119181;29;20432;-75
2021/03/17 01:14:37;;;;;;;7.37;2.47;;;;;;;3.12;71.06;102088.28;6119068;29;20397;-74
2021/03/17 01:17:41;;;;;;;5.70;2.37;;;;;;;3.23;70.32;102112.44;6120221;29;20260;-74
2021/03/17 01:20:45;;;;;;;7.97;2.27;;;;;;;3.37;69.70;102098.53;6120240;29;20192;-74
2021/03/17 01:23:48;;;;;;;2.30;1.83;;;;;;;3.49;69.10;102108.22;6119734;29;20190;-74
2021/03/17 01:26:51;;;;;;;4.20;2.03;;;;;;;2.99;69.83;102114.66;6120016;29;20194;-74
2021/03/17 01:29:56;;;;;;;4.73;2.20;;;;;;;2.65;71.87;102110.53;6120009;29;20239;-75
2021/03/17 01:33:00;;;;;;;5.10;2.07;;;;;;;2.98;71.34;102118.31;6119735;29;20198;-75
2021/03/17 01:36:05;;;;;;;4.87;1.90;;;;;;;3.07;70.97;102109.41;6119564;29;20293;-74
2021/03/17 01:39:09;;;;;;;4.43;2.07;;;;;;;3.00;70.78;102116.38;6119726;29;20224;-74
2021/03/17 01:42:14;;;;;;;9.33;2.20;;;;;;;3.17;71.15;102115.69;6119707;29;20198;-75
2021/03/17 01:45:22;;;;;;;6.43;2.30;;;;;;;3.02;71.29;102117.06;6118642;29;20309;-75
2021/03/17 01:48:26;;;;;;;1.87;1.77;;;;;;;3.02;70.73;102115.22;6119656;29;20195;-74
2021/03/17 01:51:29;;;;;;;6.03;1.93;;;;;;;2.69;71.83;102110.16;6119504;29;20199;-74
2021/03/17 01:54:32;;;;;;;2.20;2.03;;;;;;;2.42;73.38;102116.09;6118092;29;20190;-74
2021/03/17 01:57:37;;;;;;;6.47;2.10;;;;;;;2.59;72.68;102121.88;6119093;29;20287;-74
2021/03/17 02:00:41;;;;;;;4.93;2.10;;;;;;;2.45;72.76;102126.63;6117790;29;20507;-75
2021/03/17 02:03:54;;;;;;;4.80;1.90;;;;;;;2.37;73.39;102126.41;6118387;29;20243;-74
2021/03/17 02:06:58;;;;;;;3.53;2.17;;;;;;;2.53;73.83;102123.25;6118864;29;20201;-74
2021/03/17 02:10:01;;;;;;;6.33;2.00;;;;;;;2.74;72.03;102120.50;6117787;29;20495;-74
2021/03/17 02:13:47;;;;;;;3.47;2.00;;;;;;;2.59;73.50;102116.47;6117867;29;20540;-75
2021/03/17 02:16:58;;;;;;;5.33;1.90;;;;;;;2.82;72.38;102120.69;6078220;29;20213;-74
2021/03/17 02:20:44;;;;;;;9.67;2.83;;;;;;;2.59;73.43;102127.25;6119010;29;20190;-75
2021/03/17 02:23:58;;;;;;;6.77;2.43;;;;;;;2.90;72.18;102112.78;6118823;29;20192;-75
2021/03/17 02:27:22;;;;;;;7.70;2.53;;;;;;;2.63;72.80;102125.97;6117517;29;20422;-74
2021/03/17 02:30:55;;;;;;;4.87;2.17;;;;;;;2.33;74.49;102126.81;6118329;29;20263;-74
2021/03/17 02:34:05;;;;;;;16.27;2.77;;;;;;;2.20;75.70;102116.25;6117262;29;20477;-74
2021/03/17 02:37:14;;;;;;;11.67;2.00;;;;;;;2.39;75.22;102127.13;6118468;29;20214;-74
2021/03/17 02:40:21;;;;;;;4.73;2.17;;;;;;;2.46;74.40;102114.88;6100393;29;20239;-74
2021/03/17 02:43:31;;;;;;;5.77;2.00;;;;;;;2.74;73.37;102120.50;6118041;29;20190;-74
2021/03/17 02:46:35;;;;;;;7.10;2.17;;;;;;;2.66;74.19;102136.50;6117036;29;20410;-74
2021/03/17 02:49:41;;;;;;;4.60;1.90;;;;;;;2.65;74.32;102137.47;6118282;29;20193;-74
2021/03/17 02:52:48;;;;;;;6.13;2.10;;;;;;;2.79;73.78;102134.44;6117996;29;20271;-74
2021/03/17 02:55:57;;;;;;;6.17;2.20;;;;;;;2.69;73.51;102128.16;6116995;29;20450;-74
2021/03/17 02:59:02;;;;;;;7.20;1.77;;;;;;;2.53;74.66;102134.88;6118096;29;20218;-74
2021/03/17 03:02:07;;;;;;;1.93;1.73;;;;;;;2.44;75.12;102134.81;6118304;29;20269;-74
2021/03/17 03:05:16;;;;;;;3.07;1.73;;;;;;;2.47;75.32;102130.03;6117347;29;20533;-74
2021/03/17 03:08:23;;;;;;;4.83;1.80;;;;;;;2.44;74.75;102130.28;6117795;29;20197;-74
2021/03/17 03:11:27;;;;;;;4.63;1.80;;;;;;;2.56;75.26;102132.91;6116149;29;20481;-74
2021/03/17 03:14:31;;;;;;;2.47;1.70;;;;;;;2.72;73.92;102127.88;6116750;29;20376;-74
2021/03/17 03:17:36;;;;;;;2.13;1.90;;;;;;;2.58;74.91;102131.78;6117931;29;20219;-74
2021/03/17 03:20:42;;;;;;;3.17;1.83;;;;;;;2.71;74.35;102136.94;6117578;29;20212;-75
2021/03/17 03:23:49;;;;;;;5.07;1.97;;;;;;;2.67;74.24;102140.91;6116814;29;20198;-74
2021/03/17 03:26:53;;;;;;;1.90;1.87;;;;;;;2.43;74.98;102142.06;6117618;29;20237;-74
2021/03/17 03:29:58;;;;;;;1.80;1.70;;;;;;;2.62;74.20;102143.16;6116439;29;20396;-75
2021/03/17 03:33:02;;;;;;;8.03;1.70;;;;;;;2.68;74.12;102143.47;6116619;29;20511;-73
2021/03/17 03:36:08;;;;;;;5.93;2.10;;;;;;;2.63;74.45;102150.22;6117231;29;20407;-74
2021/03/17 03:39:12;;;;;;;2.80;1.80;;;;;;;2.32;75.81;102169.06;6117165;29;20218;-75
2021/03/17 03:42:18;;;;;;;5.20;1.80;;;;;;;2.55;75.72;102148.22;6117949;29;20188;-74
2021/03/17 03:45:21;;;;;;;1.97;1.87;;;;;;;2.27;76.09;102160.53;6117380;29;20194;-75
2021/03/17 03:48:25;;;;;;;2.60;2.00;;;;;;;1.95;77.33;102151.66;6116255;29;20443;-74
2021/03/17 03:51:31;;;;;;;2.60;2.00;;;;;;;2.09;77.13;102156.72;6117149;29;20228;-74
2021/03/17 03:54:42;;;;;;;4.73;1.87;;;;;;;2.05;77.77;102160.66;6117208;29;20265;-75
2021/03/17 03:57:49;;;;;;;5.10;2.03;;;;;;;2.08;77.96;102164.94;6116149;29;20576;-74
2021/03/17 04:00:54;;;;;;;2.20;2.10;;;;;;;1.78;78.89;102158.44;6116495;29;20300;-75
2021/03/17 04:04:01;;;;;;;3.13;1.70;;;;;;;1.78;79.01;102155.75;6116115;29;20543;-74
2021/03/17 04:07:07;;;;;;;2.17;2.00;;;;;;;1.80;78.89;102155.59;6116929;29;20307;-74
2021/03/17 04:10:12;;;;;;;5.77;1.90;;;;;;;1.73;79.70;102160.66;6117048;29;20190;-74
2021/03/17 04:13:16;;;;;;;4.83;2.13;;;;;;;1.96;78.43;102166.81;6117391;29;20192;-73
2021/03/17 04:16:22;;;;;;;4.57;2.10;;;;;;;1.53;80.41;102174.06;6099349;29;20285;-74
2021/03/17 04:19:27;;;;;;;4.50;2.10;;;;;;;1.34;81.63;102173.84;6116847;29;20355;-74
2021/03/17 04:22:32;;;;;;;3.60;2.00;;;;;;;1.21;82.66;102184.75;6118505;29;20192;-75
2021/03/17 04:25:39;;;;;;;2.43;2.20;;;;;;;1.16;83.33;102182.44;6120236;29;20227;-74
2021/03/17 04:28:45;;;;;;;1.97;1.83;;;;;;;1.37;82.67;102187.03;6121074;29;20227;-75
2021/03/17 04:31:51;;;;;;;2.93;2.20;;;;;;;1.47;82.66;102175.41;6120811;29;20192;-74
2021/03/17 04:34:56;;;;;;;5.13;2.03;;;;;;;1.71;81.84;102177.91;6120824;29;20240;-74
2021/03/17 04:38:01;;;;;;;2.40;1.90;;;;;;;1.58;81.53;102186.16;6121365;29;20226;-73
2021/03/17 04:41:04;;;;;;;2.17;2.00;;;;;;;1.65;81.38;102183.78;6119882;29;20191;-73
2021/03/17 04:44:08;;;;;;;2.23;2.00;;;;;;;1.35;81.96;102186.31;6119599;29;20423;-73
2021/03/17 04:47:13;;;;;;;4.10;2.23;;;;;;;1.21;83.49;102195.50;6120540;29;20224;-73
2021/03/17 04:50:18;;;;;;;1.70;1.70;;;;;;;1.21;83.67;102207.09;6120547;29;20196;-73
2021/03/17 04:53:22;;;;;;;1.90;1.80;;;;;;;1.65;82.03;102199.94;6120447;29;20271;-74
2021/03/17 04:56:27;;;;;;;2.67;2.20;;;;;;;1.74;81.11;102204.56;6120721;29;20302;-73
2021/03/17 04:59:35;;;;;;;4.67;1.90;;;;;;;1.81;80.62;102211.16;6119332;29;20397;-73
2021/03/17 05:02:43;;;;;;;2.40;1.60;;;;;;;1.76;80.35;102216.06;6120212;29;20204;-73
2021/03/17 05:05:50;;;;;;;2.37;1.57;;;;;;;1.95;79.33;102210.88;6119085;29;20437;-74
2021/03/17 05:08:54;;;;;;;2.43;1.60;;;;;;;1.81;78.64;102221.91;6119116;29;20363;-74
2021/03/17 05:12:06;;;;;;;1.80;1.70;;;;;;;1.96;78.67;102215.25;6119948;29;20256;-74
2021/03/17 05:15:12;;;;;;;1.33;1.33;;;;;;;1.97;78.22;102222.34;6119330;29;20414;-73
2021/03/17 05:18:22;;;;;;;1.80;1.70;;;;;;;2.19;77.97;102233.03;6118762;29;20268;-73
2021/03/17 05:21:27;;;;;;;2.00;1.53;;;;;;;2.07;78.05;102222.44;6119779;29;20243;-73
2021/03/17 05:24:32;;;;;;;4.20;1.70;;;;;;;2.00;77.99;102226.63;6119778;29;20189;-73
2021/03/17 05:27:37;;;;;;;1.63;1.63;;;;;;;2.11;77.57;102232.81;6119991;29;20199;-73
2021/03/17 05:30:40;;;;;;;1.97;1.53;;;;;;;2.15;77.11;102236.97;6119545;29;20215;-73
2021/03/17 05:33:44;;;;;;;3.53;1.63;;;;;;;2.18;77.20;102252.88;6119322;29;20264;-74
2021/03/17 05:36:51;;;;;;;2.80;1.60;;;;;;;2.14;77.35;102255.94;6119648;29;20192;-75
2021/03/17 05:39:56;;;;;;;1.80;1.60;;;;;;;1.93;78.41;102253.19;6118250;29;20219;-75
2021/03/17 05:43:00;;;;;;;6.07;1.87;;;;;;;1.97;78.20;102265.44;6119428;29;20195;-74
2021/03/17 05:46:04;;;;;;;2.37;1.57;;;;;;;1.98;77.75;102259.03;6118334;29;20256;-75
2021/03/17 05:49:08;;;;;;;1.90;1.40;;;;;;;2.07;78.25;102269.06;6119411;29;20261;-75
2021/03/17 05:52:14;;;;;;;1.50;1.50;;;;;;;2.06;78.30;102258.41;6119368;29;20189;-74
2021/03/17 05:55:19;;;;;;;5.20;1.70;;;;;;;1.90;78.62;102270.44;6118563;29;20190;-74
2021/03/17 05:58:22;;;;;;;1.60;1.50;;;;;;;1.92;79.16;102267.66;6119156;29;20220;-74
2021/03/17 06:01:25;;;;;;;5.10;1.63;;;;;;;2.01;78.92;102283.03;6119051;29;20223;-74
2021/03/17 06:04:30;;;;;;;6.43;1.50;;;;;;;2.03;78.16;102275.66;6118508;29;20393;-74
2021/03/17 06:07:41;;;;;;;3.70;1.70;;;;;;;1.67;79.60;102284.09;6118925;29;20199;-74
2021/03/17 06:10:47;;;;;;;1.90;1.80;;;;;;;1.87;79.15;102283.31;6118876;29;20197;-74
2021/03/17 06:13:52;;;;;;;2.63;1.77;;;;;;;1.92;78.82;102262.25;6118968;29;20264;-74
2021/03/17 06:17:03;;;;;;;1.67;1.67;;;;;;;1.92;79.04;102278.41;6118885;29;20197;-74
2021/03/17 06:20:08;;;;;;;1.80;1.80;;;;;;;1.87;79.40;102280.63;6118618;29;20231;-74
2021/03/17 06:23:12;;;;;;;1.40;1.40;;;;;;;1.92;79.86;102293.69;6117848;29;20201;-74
2021/03/17 06:26:18;;;;;;;3.60;1.70;;;;;;;1.70;81.05;102286.50;6118278;29;20189;-74
2021/03/17 06:29:22;;;;;;;1.43;1.40;;;;;;;1.92;80.66;102294.56;6118101;29;20193;-74
2021/03/17 06:32:26;;;;;;;2.40;1.60;;;;;;;1.89;80.44;102306.44;6117038;29;20309;-73
2021/03/17 06:35:30;;;;;;;1.93;1.70;;;;;;;2.03;79.93;102291.81;6117052;29;20360;-74
2021/03/17 06:38:33;;;;;;;2.20;1.30;;;;;;;1.98;79.94;102295.91;6116967;29;20437;-74
2021/03/17 06:41:46;;;;;;;8.00;1.30;;;;;;;2.11;79.97;102294.75;6117283;29;20402;-75
2021/03/17 06:44:55;;;;;;;1.50;1.50;;;;;;;1.85;80.93;102304.97;6115898;29;20189;-75
2021/03/17 06:48:18;;;;;;;2.93;1.37;;;;;;;2.07;80.80;102308.59;6117858;29;20198;-75
2021/03/17 06:51:22;;;;;;;3.13;1.40;;;;;;;2.01;80.31;102309.09;6117859;29;20190;-75
2021/03/17 06:54:25;;;;;;;9.07;1.80;;;;;;;2.00;80.69;102319.03;6116059;29;20192;-75
2021/03/17 06:57:29;;;;;;;2.57;1.50;;;;;;;2.05;80.08;102315.94;6117731;29;20189;-75
2021/03/17 07:00:34;;;;;;;5.37;1.53;;;;;;;2.01;80.68;102306.38;6117851;29;20227;-75
2021/03/17 07:03:52;;;;;;;6.70;1.50;;;;;;;1.97;80.83;102313.88;6117773;29;20308;-75
2021/03/17 07:07:01;;;;;;;2.83;1.80;;;;;;;1.89;81.20;102321.72;6118010;29;20261;-75
2021/03/17 07:10:05;;;;;;;1.67;1.57;;;;;;;2.04;80.27;102309.69;6116731;29;20475;-74
2021/03/17 07:13:15;;;;;;;2.33;1.50;;;;;;;2.00;80.67;102302.88;6117846;29;20217;-74
2021/03/17 07:16:36;;;;;;;2.43;1.50;;;;;;;2.06;80.40;102320.31;6116561;29;20476;-74
2021/03/17 07:19:56;;;;;;;1.63;1.50;;;;;;;2.01;80.75;102326.09;6117620;29;20255;-76
2021/03/17 07:23:19;;;;;;;2.20;1.53;;;;;;;2.08;80.48;102321.91;6099968;29;20219;-76
2021/03/17 07:26:24;;;;;;;1.70;1.70;;;;;;;2.12;79.65;102299.16;6117584;29;20199;-75
2021/03/17 07:29:29;;;;;;;1.87;1.77;;;;;;;2.28;79.90;102323.84;6117092;29;20268;-74
2021/03/17 07:32:57;;;;;;;4.13;1.50;;;;;;;2.29;79.54;102330.06;6116216;29;20483;-75
2021/03/17 07:36:00;;;;;;;1.53;1.53;;;;;;;2.28;78.66;102337.31;6099680;29;20296;-75
2021/03/17 07:39:07;;;;;;;3.87;1.53;;;;;;;2.26;79.11;102341.94;6116720;29;20215;-75
2021/03/17 07:42:13;;;;;;;1.70;1.60;;;;;;;2.21;79.07;102333.38;6117325;29;20189;-73
2021/03/17 07:45:20;;;;;;;2.10;1.57;;;;;;;2.28;78.57;102340.00;6116725;29;20189;-73
2021/03/17 07:48:25;;;;;;;6.60;1.60;;;;;;;2.09;79.78;102337.09;6117423;29;20231;-76
2021/03/17 07:51:30;;;;;;;1.53;1.50;;;;;;;2.21;79.44;102341.47;6117620;29;20191;-75
2021/03/17 07:54:36;;;;;;;3.50;1.90;;;;;;;2.01;80.33;102347.63;6116445;29;20237;-75
2021/03/17 07:57:40;;;;;;;4.93;1.60;;;;;;;2.15;80.29;102349.19;6119453;29;20196;-75
2021/03/17 08:00:44;;;;;;;1.80;1.73;;;;;;;2.27;79.45;102349.03;6121964;29;20225;-75
2021/03/17 08:03:49;;;;;;;5.73;1.97;;;;;;;2.21;79.23;102338.75;6120414;29;20405;-75
2021/03/17 08:06:55;;;;;;;3.90;1.80;;;;;;;2.40;78.41;102344.34;6121187;29;20193;-75
2021/03/17 08:09:59;;;;;;;2.97;1.90;;;;;;;2.38;78.03;102351.72;6120625;29;20389;-74
2021/03/17 08:13:02;;;;;;;1.70;1.60;;;;;;;2.24;77.12;102338.53;6101171;29;20464;-75
2021/03/17 08:16:08;;;;;;;1.80;1.80;;;;;;;2.45;76.26;102336.75;6080613;29;20479;-75
2021/03/17 08:19:20;;;;;;;2.57;1.90;;;;;;;2.64;75.63;102356.75;6097886;29;20214;-76
2021/03/17 08:22:36;;;;;;;2.53;1.90;;;;;;;2.53;75.52;102350.44;6097756;29;20253;-75
2021/03/17 08:25:45;;;;;;;2.37;1.83;;;;;;;2.56;74.99;102364.63;6096774;29;20498;-75
2021/03/17 08:28:52;;;;;;;2.40;1.70;;;;;;;2.59;74.86;102358.97;6097784;29;20197;-74
2021/03/17 08:31:56;;;;;;;2.40;1.90;;;;;;;2.69;72.98;102358.09;6096471;29;20419;-74
2021/03/17 08:35:00;;;;;;;1.60;1.60;;;;;;;2.68;73.05;102363.59;6097460;29;20190;-75
2021/03/17 08:38:13;;;;;;;4.73;1.77;;;;;;;2.72;72.25;102332.72;6097487;29;20232;-75
2021/03/17 08:41:37;;;;;;;5.00;1.70;;;;;;;2.76;69.95;102363.81;6096165;29;20557;-75
2021/03/17 08:44:48;;;;;;;3.83;1.47;;;;;;;2.74;67.86;102374.72;6095959;29;20213;-75
2021/03/17 08:47:53;;;;;;;4.60;1.80;;;;;;;2.68;67.87;102377.06;6096816;29;20274;-75
2021/03/17 08:51:08;;;;;;;4.43;1.63;;;;;;;2.78;68.38;102369.91;6096911;29;20201;-74
2021/03/17 08:54:44;;;;;;;3.33;1.60;;;;;;;2.96;68.20;102373.75;6095739;29;20416;-75
2021/03/17 08:58:04;;;;;;;2.27;1.77;;;;;;;2.92;68.44;102361.53;6076256;29;20494;-75
2021/03/17 09:01:08;;;;;;;1.40;1.40;;;;;;;3.03;67.80;102375.78;6095697;29;20240;-76
2021/03/17 09:04:43;;;;;;;1.83;1.83;;;;;;;2.95;66.31;102377.44;6082812;29;20236;-75
2021/03/17 09:08:05;;;;;;;5.53;2.80;;;;;;;2.95;66.00;102382.84;6071139;29;20504;-75
2021/03/17 09:11:08;;;;;;;2.57;2.37;;;;;;;2.92;65.78;102377.69;6072656;29;20196;-74
2021/03/17 09:14:19;;;;;;;3.33;2.30;;;;;;;2.99;64.73;102379.75;6072727;29;20243;-75
2021/03/17 09:17:29;;;;;;;3.50;2.10;;;;;;;3.21;64.27;102383.31;6071692;29;20194;-75
2021/03/17 09:20:40;;;;;;;2.10;2.10;;;;;;;3.22;62.84;102396.66;6071479;29;20563;-75
2021/03/17 09:23:43;;;;;;;1.87;1.77;;;;;;;3.07;63.73;102381.78;6072596;29;20197;-74
2021/03/17 09:26:47;;;;;;;2.33;2.30;;;;;;;3.00;64.66;102397.66;6072560;29;20196;-73
2021/03/17 09:29:52;;;;;;;4.17;3.00;;;;;;;2.74;64.49;102396.28;6055660;29;20220;-75
2021/03/17 09:33:04;;;;;;;2.10;2.00;;;;;;;2.99;63.87;102400.44;6073123;29;20201;-75
2021/03/17 09:36:12;;;;;;;2.40;2.30;;;;;;;2.90;60.75;102402.06;6073060;29;20197;-75
2021/03/17 09:39:17;;;;;;;1.87;1.87;;;;;;;3.03;60.51;102402.75;6072748;29;20361;-76
2021/03/17 09:42:21;;;;;;;5.67;2.27;;;;;;;2.96;59.45;102414.19;6072540;29;20192;-75
2021/03/17 09:45:25;;;;;;;2.00;2.00;;;;;;;3.01;60.19;102393.09;6071861;29;20428;-75
2021/03/17 09:48:29;;;;;;;4.00;2.03;;;;;;;3.13;60.40;102413.63;6056071;29;20214;-75
2021/03/17 09:51:35;;;;;;;2.43;2.23;;;;;;;3.19;60.84;102415.78;6072993;29;20237;-75
2021/03/17 09:54:39;;;;;;;4.40;2.00;;;;;;;3.16;61.89;102416.03;6071578;29;20475;-75
2021/03/17 09:57:43;;;;;;;1.80;1.70;;;;;;;2.90;61.97;102422.81;6116017;29;20421;-76
2021/03/17 10:00:48;;;;;;;1.83;1.80;;;;;;;2.92;62.84;102426.22;6119398;29;20262;-77
2021/03/17 10:03:53;;;;;;;1.90;1.90;;;;;;;2.88;62.09;102440.94;6118573;29;20596;-74
2021/03/17 10:07:19;;;;;;;4.93;2.00;;;;;;;2.87;62.25;102433.84;6105072;29;20267;-75
2021/03/17 10:10:23;;;;;;;2.37;2.27;;;;;;;3.03;62.67;102434.28;6117832;29;20193;-74
2021/03/17 10:13:27;;;;;;;2.10;1.93;;;;;;;2.92;63.99;102442.41;6118759;29;20190;-75
2021/03/17 10:16:30;;;;;;;2.10;2.10;;;;;;;3.09;63.38;102442.69;6118786;29;20188;-75
2021/03/17 10:19:34;;;;;;;5.13;2.53;;;;;;;3.25;63.75;102438.69;6118853;29;20219;-75
2021/03/17 10:22:39;;;;;;;5.33;2.70;;;;;;;3.04;63.39;102458.41;6118773;29;20191;-74
2021/03/17 10:25:42;;;;;;;3.03;2.33;;;;;;;2.99;63.83;102459.78;6117695;29;20314;-75
2021/03/17 10:28:49;;;;;;;3.90;2.40;;;;;;;2.96;64.83;102465.41;6118924;29;20234;-75
2021/03/17 10:31:55;;;;;;;6.80;2.33;;;;;;;2.85;63.43;102462.78;6117583;29;20509;-75
2021/03/17 10:35:05;;;;;;;2.10;2.10;;;;;;;2.89;63.44;102470.47;6118199;29;20232;-75
2021/03/17 10:38:10;;;;;;;2.40;2.30;;;;;;;2.71;64.19;102465.75;6117381;29;20245;-75
2021/03/17 10:41:14;;;;;;;5.37;4.97;;;;;;;2.84;64.11;102461.91;6118222;29;20246;-76
2021/03/17 10:44:19;;;;;;;2.10;2.10;;;;;;;2.69;64.50;102455.13;6117948;29;20229;-74
2021/03/17 10:47:25;;;;;;;1.80;1.80;;;;;;;2.78;64.44;102453.47;6117965;29;20198;-76
2021/03/17 10:50:31;;;;;;;2.23;2.23;;;;;;;2.78;63.64;102461.56;6119240;29;20197;-74
2021/03/17 10:53:37;;;;;;;2.53;2.40;;;;;;;2.92;64.55;102453.19;6117801;29;20529;-74
2021/03/17 10:56:50;;;;;;;4.00;2.40;;;;;;;3.26;63.67;102457.47;6117727;29;20191;-75
2021/03/17 10:59:54;;;;;;;2.50;2.40;;;;;;;3.16;61.96;102451.97;6117852;29;20213;-74
2021/03/17 11:02:57;;;;;;;1.80;1.80;;;;;;;3.00;60.42;102461.50;6117589;29;20294;-75
2021/03/17 11:06:11;;;;;;;2.07;2.07;;;;;;;3.03;59.59;102466.63;6117723;29;20197;-74
2021/03/17 11:09:15;;;;;;;4.70;2.50;;;;;;;3.09;59.39;102461.56;6117362;29;20255;-75
2021/03/17 11:12:19;;;;;;;5.17;2.03;;;;;;;3.08;59.81;102464.41;6117705;29;20236;-76
2021/03/17 11:15:25;;;;;;;6.40;2.03;;;;;;;3.10;59.46;102470.53;6116741;29;20219;-74
2021/03/17 11:18:30;;;;;;;2.50;2.37;;;;;;;3.06;58.90;102463.66;6116194;29;20254;-75
2021/03/17 11:21:35;;;;;;;2.90;2.70;;;;;;;2.89;58.98;102448.06;6117376;29;20218;-75
2021/03/17 11:24:41;;;;;;;1.80;1.80;;;;;;;2.99;59.59;102470.56;6117380;29;20237;-75
2021/03/17 11:27:44;;;;;;;1.90;1.90;;;;;;;2.89;59.45;102469.63;6117890;29;20213;-74
2021/03/17 11:30:51;;;;;;;1.70;1.70;;;;;;;3.03;59.35;102466.63;6117527;29;20194;-74
2021/03/17 11:33:55;;;;;;;3.70;2.13;;;;;;;3.10;59.47;102465.13;6121956;29;20188;-75
2021/03/17 11:37:00;;;;;;;11.43;2.40;;;;;;;3.14;59.84;102458.47;6122218;29;20216;-74
2021/03/17 11:40:07;;;;;;;2.23;2.20;;;;;;;3.25;59.78;102469.22;6105124;29;20231;-74
2021/03/17 11:43:35;;;;;;;2.23;2.13;;;;;;;3.29;59.35;102467.13;6120795;29;20234;-75
2021/03/17 11:46:39;;;;;;;2.20;2.13;;;;;;;3.22;60.00;102480.28;6120975;29;20220;-74
2021/03/17 11:49:43;;;;;;;2.40;2.30;;;;;;;3.19;60.88;102456.25;6121894;29;20252;-75
2021/03/17 11:52:46;;;;;;;2.50;2.40;;;;;;;3.15;58.83;102471.00;6121824;29;20194;-74
2021/03/17 11:55:59;;;;;;;2.20;2.00;;;;;;;2.98;57.75;102452.66;6121678;29;20189;-74
2021/03/17 11:59:02;;;;;;;2.00;1.90;;;;;;;3.04;57.47;102473.72;6121011;29;20264;-74
2021/03/17 12:02:07;;;;;;;5.33;2.20;;;;;;;3.05;56.12;102486.22;6120870;29;20234;-75
2021/03/17 12:05:15;;;;;;;1.90;1.90;;;;;;;3.11;55.43;102478.47;6120488;29;20265;-74
2021/03/17 12:08:25;;;;;;;1.60;1.50;;;;;;;3.24;54.87;102489.09;6121513;29;20202;-75
2021/03/17 12:11:51;;;;;;;2.10;2.00;;;;;;;3.35;54.82;102494.44;6120628;29;20262;-74
2021/03/17 12:14:55;;;;;;;1.67;1.67;;;;;;;3.33;53.68;102485.63;6120042;29;20505;-74
2021/03/17 12:18:20;;;;;;;2.80;2.30;;;;;;;3.35;54.65;102488.16;6120697;29;20232;-75
2021/03/17 12:21:25;;;;;;;3.30;1.83;;;;;;;3.36;55.54;102485.38;6120287;29;20537;-75
2021/03/17 12:24:28;;;;;;;4.77;2.23;;;;;;;3.33;56.50;102491.00;6121186;29;20197;-75
2021/03/17 12:27:33;;;;;;;5.00;1.93;;;;;;;3.45;56.20;102500.75;6121294;29;20193;-75
2021/03/17 12:30:44;;;;;;;2.40;2.33;;;;;;;3.34;56.48;102486.47;6121183;29;20201;-74
2021/03/17 12:33:54;;;;;;;2.10;2.10;;;;;;;3.41;57.16;102499.31;6121046;29;20192;-74
2021/03/17 12:36:59;;;;;;;2.03;2.03;;;;;;;3.33;57.10;102499.09;6120284;29;20481;-74
2021/03/17 12:40:03;;;;;;;2.67;2.57;;;;;;;3.31;57.08;102514.56;6121071;29;20222;-74
2021/03/17 12:43:08;;;;;;;2.60;2.60;;;;;;;3.36;57.22;102517.75;6118588;29;20197;-75
2021/03/17 12:46:19;;;;;;;4.10;2.47;;;;;;;3.24;57.15;102513.34;6119843;29;20475;-74
2021/03/17 12:49:23;;;;;;;2.20;2.10;;;;;;;3.39;56.62;102512.06;6119477;29;20432;-74
2021/03/17 12:52:27;;;;;;;2.43;2.23;;;;;;;3.27;55.56;102513.09;6120684;29;20227;-74
2021/03/17 12:55:31;;;;;;;2.20;2.20;;;;;;;3.27;55.89;102507.72;6120761;29;20202;-74
2021/03/17 12:58:35;;;;;;;11.07;2.50;;;;;;;3.23;54.97;102527.84;6119686;29;20475;-75
2021/03/17 13:01:41;;;;;;;2.00;1.90;;;;;;;3.15;54.28;102516.84;6119984;28;20246;-74
2021/03/17 13:04:45;;;;;;;2.70;2.60;;;;;;;3.20;55.01;102509.22;6117631;29;20233;-75
2021/03/17 13:07:50;;;;;;;7.00;2.90;;;;;;;3.25;55.46;102514.22;6120350;29;20238;-74
2021/03/17 13:10:54;;;;;;;3.13;3.03;;;;;;;3.27;53.92;102518.50;6120699;29;20193;-75
2021/03/17 13:13:58;;;;;;;3.23;2.93;;;;;;;3.28;54.17;102504.03;6119859;29;20242;-74
2021/03/17 13:17:02;;;;;;;2.53;2.50;;;;;;;3.39;54.93;102509.38;6120241;29;20198;-74
2021/03/17 13:20:09;;;;;;;2.87;2.63;;;;;;;3.32;54.25;102505.47;6119944;29;20214;-74
2021/03/17 13:23:17;;;;;;;2.47;2.30;;;;;;;3.39;54.88;102508.53;6120231;29;20274;-73
2021/03/17 13:26:21;;;;;;;3.33;2.40;;;;;;;3.47;55.20;102509.56;6119070;29;20385;-74
2021/03/17 13:29:28;;;;;;;2.60;2.00;;;;;;;3.42;55.29;102502.84;6118883;29;20364;-74
2021/03/17 13:32:32;;;;;;;2.40;2.30;;;;;;;3.46;54.08;102507.88;6120209;29;20193;-74
2021/03/17 13:35:37;;;;;;;1.93;1.93;;;;;;;3.44;53.98;102504.44;6119575;29;20270;-74
2021/03/17 13:38:41;;;;;;;5.70;2.30;;;;;;;3.47;54.00;102504.19;6118481;29;20521;-74
2021/03/17 13:41:45;;;;;;;2.33;2.13;;;;;;;3.38;54.10;102498.72;6118512;29;20518;-74
2021/03/17 13:44:49;;;;;;;2.30;2.20;;;;;;;3.34;53.83;102503.50;6119640;29;20195;-75
2021/03/17 13:47:53;;;;;;;1.90;1.80;;;;;;;3.33;53.88;102506.34;6119611;29;20198;-74
2021/03/17 13:50:56;;;;;;;2.57;2.43;;;;;;;3.26;53.98;102495.22;6119809;29;20259;-74
2021/03/17 13:53:59;;;;;;;4.30;2.00;;;;;;;3.25;53.04;102509.69;6117881;29;20192;-75
2021/03/17 13:57:04;;;;;;;2.40;2.00;;;;;;;3.20;53.27;102501.13;6118193;29;20216;-73
2021/03/17 14:00:12;;;;;;;2.30;2.30;;;;;;;3.06;54.32;102509.50;6118677;29;20237;-74
2021/03/17 14:03:39;;;;;;;4.83;1.97;;;;;;;2.95;54.04;102507.69;6110409;29;20299;-74
2021/03/17 14:06:46;;;;;;;2.73;2.10;;;;;;;2.96;54.04;102514.81;6095565;29;20196;-74
2021/03/17 14:09:49;;;;;;;3.40;1.87;;;;;;;2.92;54.36;102518.75;6095209;29;20189;-74
2021/03/17 14:12:53;;;;;;;1.80;1.80;;;;;;;2.95;53.32;102512.25;6094952;29;20221;-74
2021/03/17 14:15:57;;;;;;;4.40;2.30;;;;;;;2.98;54.27;102501.19;6094032;29;20196;-73
2021/03/17 14:19:03;;;;;;;9.00;2.40;;;;;;;3.09;53.49;102520.03;6094105;29;20266;-74
2021/03/17 14:22:10;;;;;;;2.40;2.40;;;;;;;3.09;53.06;102514.66;6093813;29;20472;-75
2021/03/17 14:25:20;;;;;;;3.47;1.97;;;;;;;3.10;53.37;102513.69;6093673;29;20349;-74
2021/03/17 14:28:24;;;;;;;2.07;2.03;;;;;;;3.06;53.17;102514.91;6094615;29;20213;-73
2021/03/17 14:31:29;;;;;;;2.10;2.00;;;;;;;3.12;52.18;102525.19;6095087;29;20196;-74
2021/03/17 14:34:32;;;;;;;2.77;2.17;;;;;;;3.19;52.55;102510.19;6094946;29;20197;-74
2021/03/17 14:37:39;;;;;;;2.57;1.80;;;;;;;3.08;53.16;102518.34;6094566;29;20201;-73
2021/03/17 14:40:42;;;;;;;1.80;1.70;;;;;;;2.97;52.98;102508.44;6093898;29;20214;-74
2021/03/17 14:43:46;;;;;;;2.10;2.10;;;;;;;2.93;54.58;102515.06;6094233;29;20198;-74
2021/03/17 14:46:50;;;;;;;1.80;1.80;;;;;;;3.04;54.35;102506.09;6094460;29;20236;-74